Time;durP1;ratioP1;P1;durP2;ratioP2;P2;SDS_P1;SDS_P2;PMS_P1;PMS_P2;Temp;Humidity;BMP_temperature;BMP_pressure;BME280_temperature;BME280_humidity;BME280_pressure;Samples;Min_cycle;Max_cycle;Signal;HPM_P1;HPM_P2
2021/07/22 00:00:19;;;;;;;9.52;7.22;;;;;;;19.63;62.53;101739.34;692675;28;37338;-62
2021/07/22 00:00:40;;;;;;;8.40;6.15;;;;;;;19.65;62.39;101735.56;692987;28;45250;-61
2021/07/22 00:01:01;;;;;;;9.85;6.78;;;;;;;19.63;62.57;101741.25;693995;28;23499;-62
2021/07/22 00:01:23;;;;;;;9.88;6.72;;;;;;;19.63;62.48;101738.53;693355;28;13869;-62
2021/07/22 00:01:44;;;;;;;10.43;6.80;;;;;;;19.63;62.48;101742.09;692824;28;46451;-61
2021/07/22 00:02:06;;;;;;;8.80;6.68;;;;;;;19.63;62.42;101738.53;694210;28;22493;-62
2021/07/22 00:02:27;;;;;;;8.02;6.43;;;;;;;19.63;62.45;101746.75;692774;28;44392;-62
2021/07/22 00:02:49;;;;;;;8.27;6.65;;;;;;;19.65;62.80;101738.31;693905;28;22415;-62
2021/07/22 00:03:11;;;;;;;10.68;7.03;;;;;;;19.63;62.67;101735.78;693241;28;46285;-62
2021/07/22 00:03:32;;;;;;;8.55;6.57;;;;;;;19.62;62.59;101740.44;694390;28;43020;-61
2021/07/22 00:03:54;;;;;;;9.27;6.60;;;;;;;19.62;62.61;101737.69;696645;28;22404;-62
2021/07/22 00:04:15;;;;;;;10.38;6.65;;;;;;;19.62;62.47;101734.94;696148;28;21545;-62
2021/07/22 00:04:36;;;;;;;9.15;6.60;;;;;;;19.63;62.57;101744.84;696856;28;1101;-62
2021/07/22 00:04:59;;;;;;;8.75;6.80;;;;;;;19.63;62.76;101741.25;696620;28;20387;-61
2021/07/22 00:05:21;;;;;;;8.23;6.40;;;;;;;19.62;62.79;101739.56;696367;28;15837;-61
2021/07/22 00:05:42;;;;;;;7.82;6.25;;;;;;;19.61;62.65;101746.13;696401;28;23479;-61
2021/07/22 00:06:03;;;;;;;9.15;6.50;;;;;;;19.63;62.69;101739.34;696475;28;23434;-61
2021/07/22 00:06:24;;;;;;;10.50;6.60;;;;;;;19.62;62.65;101740.44;696527;28;22396;-61
2021/07/22 00:06:46;;;;;;;11.43;6.40;;;;;;;19.62;62.57;101747.78;696668;28;21526;-62
2021/07/22 00:07:08;;;;;;;7.47;6.15;;;;;;;19.62;62.70;101739.56;696206;28;36247;-61
2021/07/22 00:07:29;;;;;;;8.27;6.45;;;;;;;19.60;63.02;101744.44;696355;28;22394;-62
2021/07/22 00:07:50;;;;;;;8.15;6.57;;;;;;;19.60;62.84;101739.78;696606;28;17782;-61
2021/07/22 00:08:11;;;;;;;9.38;6.72;;;;;;;19.60;62.62;101747.16;696647;28;22389;-62
2021/07/22 00:08:33;;;;;;;7.93;6.43;;;;;;;19.60;62.76;101741.69;695437;28;44390;-62
2021/07/22 00:08:54;;;;;;;6.95;6.10;;;;;;;19.61;62.89;101748.88;694586;28;46305;-62
2021/07/22 00:09:15;;;;;;;9.15;6.22;;;;;;;19.59;62.94;101743.59;695838;28;8036;-62
2021/07/22 00:09:39;;;;;;;9.90;6.57;;;;;;;19.60;62.86;101744.44;695344;28;22506;-61
2021/07/22 00:10:00;;;;;;;9.25;6.50;;;;;;;19.60;62.83;101748.00;694958;28;69467;-62
2021/07/22 00:10:22;;;;;;;8.90;6.40;;;;;;;19.60;62.83;101745.25;695824;28;23557;-61
2021/07/22 00:10:43;;;;;;;8.57;6.65;;;;;;;19.61;62.83;101740.66;695852;28;47510;-62
2021/07/22 00:11:05;;;;;;;7.65;6.63;;;;;;;19.60;62.90;101744.44;696020;28;21538;-61
2021/07/22 00:11:26;;;;;;;8.07;6.30;;;;;;;19.59;63.01;101743.59;694095;28;68423;-62
2021/07/22 00:11:48;;;;;;;8.23;6.10;;;;;;;19.60;63.06;101750.75;696203;28;21485;-62
2021/07/22 00:12:11;;;;;;;7.97;6.20;;;;;;;19.59;63.04;101746.34;695698;28;46309;-62
2021/07/22 00:12:32;;;;;;;9.07;6.63;;;;;;;19.58;63.03;101741.06;695289;28;42638;-62
2021/07/22 00:12:53;;;;;;;9.10;6.40;;;;;;;19.58;62.98;101747.38;696130;28;23423;-61
2021/07/22 00:13:14;;;;;;;8.52;6.30;;;;;;;19.58;62.93;101749.28;695376;28;21319;-62
2021/07/22 00:13:36;;;;;;;9.43;6.68;;;;;;;19.58;63.11;101747.38;696313;28;4656;-61
2021/07/22 00:13:57;;;;;;;8.45;6.45;;;;;;;19.59;63.16;101748.22;696029;28;46392;-62
2021/07/22 00:14:18;;;;;;;9.85;6.43;;;;;;;19.59;63.22;101742.72;696555;28;22409;-62
2021/07/22 00:14:40;;;;;;;7.80;6.45;;;;;;;19.59;63.23;101746.34;696564;28;22387;-62
2021/07/22 00:15:02;;;;;;;8.35;6.53;;;;;;;19.57;63.19;101744.84;696029;28;44410;-61
2021/07/22 00:15:23;;;;;;;8.90;7.03;;;;;;;19.59;63.10;101743.59;696058;28;44358;-62
2021/07/22 00:15:44;;;;;;;9.55;6.75;;;;;;;19.58;63.21;101743.81;696431;28;22339;-61
2021/07/22 00:16:05;;;;;;;8.73;6.50;;;;;;;19.59;63.20;101748.22;696646;28;23346;-61
2021/07/22 00:16:29;;;;;;;8.43;6.40;;;;;;;19.59;63.20;101748.22;696397;28;22396;-61
2021/07/22 00:16:50;;;;;;;7.40;6.25;;;;;;;19.59;63.29;101745.47;693857;28;67623;-61
2021/07/22 00:17:11;;;;;;;7.95;6.40;;;;;;;19.58;63.33;101744.63;696672;28;23446;-61
2021/07/22 00:17:32;;;;;;;8.45;6.43;;;;;;;19.58;63.18;101743.81;696193;28;23336;-61
2021/07/22 00:17:54;;;;;;;8.95;6.57;;;;;;;19.59;63.08;101734.50;695808;28;46301;-61
2021/07/22 00:18:15;;;;;;;7.97;6.57;;;;;;;19.60;63.32;101738.94;696100;28;900;-62
2021/07/22 00:18:36;;;;;;;7.45;6.40;;;;;;;19.61;63.17;101741.47;695525;28;24681;-61
2021/07/22 00:18:57;;;;;;;7.57;6.55;;;;;;;19.61;63.14;101746.13;696659;28;21582;-61
2021/07/22 00:19:18;;;;;;;8.43;6.40;;;;;;;19.60;63.19;101734.31;696392;28;13215;-62
2021/07/22 00:19:40;;;;;;;8.50;6.80;;;;;;;19.61;63.19;101746.97;696401;28;22410;-62
2021/07/22 00:20:02;;;;;;;8.88;6.90;;;;;;;19.61;63.24;101744.22;695636;28;44399;-61
2021/07/22 00:20:23;;;;;;;9.65;6.82;;;;;;;19.61;63.19;101737.91;695437;28;46323;-61
2021/07/22 00:20:45;;;;;;;10.52;6.53;;;;;;;19.61;63.25;101740.66;695704;28;23416;-61
2021/07/22 00:21:06;;;;;;;9.20;6.72;;;;;;;19.62;63.12;101737.69;695876;28;23464;-62
2021/07/22 00:21:27;;;;;;;8.27;6.55;;;;;;;19.60;63.26;101745.25;696609;28;21579;-61
2021/07/22 00:21:49;;;;;;;9.30;6.93;;;;;;;19.61;63.24;101736.00;696571;28;22348;-61
2021/07/22 00:22:10;;;;;;;8.60;6.70;;;;;;;19.61;63.10;101729.69;696000;28;44466;-62
2021/07/22 00:22:31;;;;;;;9.30;6.80;;;;;;;19.62;63.27;101734.09;696518;28;22415;-62
2021/07/22 00:22:52;;;;;;;9.95;6.60;;;;;;;19.62;63.18;101739.56;695760;28;47321;-61
2021/07/22 00:23:14;;;;;;;10.23;6.70;;;;;;;19.61;63.25;101737.91;696687;28;21568;-61
2021/07/22 00:23:35;;;;;;;8.82;6.43;;;;;;;19.60;63.29;101738.94;694899;28;46333;-62
2021/07/22 00:23:56;;;;;;;7.03;6.00;;;;;;;19.61;63.15;101746.13;696558;28;21536;-60
2021/07/22 00:24:17;;;;;;;7.80;6.35;;;;;;;19.59;63.25;101746.34;697180;28;22400;-61
2021/07/22 00:24:39;;;;;;;9.60;7.10;;;;;;;19.59;63.09;101742.72;697384;28;24290;-61
2021/07/22 00:25:00;;;;;;;8.97;7.00;;;;;;;19.58;63.21;101743.81;696587;28;46496;-62
2021/07/22 00:25:22;;;;;;;9.38;7.07;;;;;;;19.58;63.23;101743.81;696725;28;44356;-62
2021/07/22 00:25:43;;;;;;;9.38;6.38;;;;;;;19.57;63.25;101745.69;698094;28;12870;-61
2021/07/22 00:26:06;;;;;;;10.13;6.45;;;;;;;19.57;63.37;101745.69;698062;28;4367;-62
2021/07/22 00:26:28;;;;;;;8.60;6.60;;;;;;;19.57;63.31;101739.38;697356;28;64326;-62
2021/07/22 00:26:49;;;;;;;8.52;6.60;;;;;;;19.56;63.25;101746.75;697159;28;46492;-62
2021/07/22 00:27:14;;;;;;;8.70;6.55;;;;;;;19.57;63.48;101742.13;699160;28;23403;-62
2021/07/22 00:27:35;;;;;;;8.45;6.43;;;;;;;19.56;63.32;101744.03;695694;28;115938;-61
2021/07/22 00:27:57;;;;;;;8.32;6.78;;;;;;;19.57;63.25;101739.38;699268;28;18836;-62
2021/07/22 00:28:18;;;;;;;7.93;6.43;;;;;;;19.57;63.42;101733.91;697293;28;41816;-61
2021/07/22 00:28:39;;;;;;;10.43;6.55;;;;;;;19.54;63.40;101743.38;696790;28;17066;-61
2021/07/22 00:29:01;;;;;;;9.07;6.50;;;;;;;19.56;63.41;101740.41;697346;28;1281;-62
2021/07/22 00:29:24;;;;;;;7.60;6.15;;;;;;;19.56;63.34;101737.69;697348;28;914;-61
2021/07/22 00:29:45;;;;;;;7.75;6.30;;;;;;;19.56;63.36;101743.16;695043;28;69429;-61
2021/07/22 00:30:07;;;;;;;9.25;6.35;;;;;;;19.55;63.34;101746.97;696627;28;8667;-62
2021/07/22 00:30:28;;;;;;;9.10;6.60;;;;;;;19.55;63.34;101741.50;696196;28;35324;-62
2021/07/22 00:30:53;;;;;;;7.43;6.18;;;;;;;19.55;63.52;101738.75;694703;28;80747;-61
2021/07/22 00:31:15;;;;;;;8.88;6.55;;;;;;;19.56;63.41;101737.69;695374;28;31187;-61
2021/07/22 00:31:37;;;;;;;9.20;6.90;;;;;;;19.56;63.43;101734.94;698285;28;4895;-61
2021/07/22 00:32:02;;;;;;;8.93;6.70;;;;;;;19.54;63.41;101737.88;695214;28;128263;-61
2021/07/22 00:32:24;;;;;;;8.80;6.70;;;;;;;19.54;63.41;101735.16;695510;28;22440;-60
2021/07/22 00:32:45;;;;;;;8.95;6.68;;;;;;;19.55;63.43;101744.22;695763;28;43509;-62
2021/07/22 00:33:06;;;;;;;9.18;6.68;;;;;;;19.55;63.39;101738.75;696260;28;23390;-62
2021/07/22 00:33:27;;;;;;;8.02;7.00;;;;;;;19.55;63.51;101742.31;695395;28;23511;-61
2021/07/22 00:33:49;;;;;;;8.77;6.47;;;;;;;19.56;63.44;101745.91;694847;28;45264;-61
2021/07/22 00:34:10;;;;;;;9.45;6.68;;;;;;;19.56;63.48;101737.69;696507;28;17015;-61
2021/07/22 00:34:39;;;;;;;7.88;6.13;;;;;;;19.55;63.60;101736.00;695356;28;60327;-62
2021/07/22 00:35:00;;;;;;;9.60;6.82;;;;;;;19.56;63.67;101737.69;692556;28;46321;-61
2021/07/22 00:35:22;;;;;;;7.88;6.63;;;;;;;19.55;63.63;101738.75;693258;28;21507;-62
2021/07/22 00:35:44;;;;;;;7.57;6.47;;;;;;;19.54;63.36;101726.94;694591;28;904;-61
2021/07/22 00:36:07;;;;;;;8.90;6.47;;;;;;;19.54;63.49;101737.06;695903;28;16287;-62
2021/07/22 00:36:29;;;;;;;8.35;6.28;;;;;;;19.54;63.47;101735.16;694504;28;67485;-62
2021/07/22 00:36:50;;;;;;;7.13;6.10;;;;;;;19.53;63.43;101736.22;696099;28;27002;-61
2021/07/22 00:37:13;;;;;;;7.57;6.65;;;;;;;19.53;63.56;101735.38;694975;28;23514;-61
2021/07/22 00:37:34;;;;;;;8.57;6.82;;;;;;;19.53;63.57;101724.41;691111;28;46661;-62
2021/07/22 00:37:55;;;;;;;9.85;6.63;;;;;;;19.52;63.58;101728.22;692216;28;24381;-62
2021/07/22 00:38:16;;;;;;;8.85;6.70;;;;;;;19.51;63.49;101729.25;692280;28;22147;-62
2021/07/22 00:38:37;;;;;;;9.93;6.68;;;;;;;19.52;63.47;101736.44;692534;28;23608;-62
2021/07/22 00:39:00;;;;;;;10.45;6.78;;;;;;;19.51;63.57;101732.84;693198;28;67466;-62
2021/07/22 00:39:22;;;;;;;8.85;6.72;;;;;;;19.51;63.51;101732.84;693205;28;45660;-62
2021/07/22 00:39:46;;;;;;;9.70;6.50;;;;;;;19.52;63.48;101734.53;693208;28;92231;-62
2021/07/22 00:40:10;;;;;;;8.23;6.40;;;;;;;19.52;63.72;101731.78;694346;28;68742;-61
2021/07/22 00:40:31;;;;;;;9.73;6.78;;;;;;;19.52;63.39;101740.00;693344;28;46240;-62
2021/07/22 00:40:53;;;;;;;9.10;6.85;;;;;;;19.52;63.45;101737.28;695819;28;974;-61
2021/07/22 00:41:14;;;;;;;9.73;6.88;;;;;;;19.53;63.39;101738.97;692376;28;34160;-60
2021/07/22 00:41:38;;;;;;;9.90;6.93;;;;;;;19.54;63.31;101734.31;692279;28;22475;-62
2021/07/22 00:42:01;;;;;;;8.38;6.43;;;;;;;19.54;63.17;101740.63;688264;28;138027;-61
2021/07/22 00:42:22;;;;;;;8.50;6.38;;;;;;;19.53;63.35;101732.63;690213;28;22456;-61
2021/07/22 00:42:56;;;;;;;8.40;6.60;;;;;;;19.54;63.31;101729.66;692204;28;22396;-62
2021/07/22 00:43:18;;;;;;;10.05;6.85;;;;;;;19.52;63.55;101740.00;687282;28;137248;-61
2021/07/22 00:43:40;;;;;;;11.18;6.72;;;;;;;19.51;63.31;101732.84;692026;28;34391;-61
2021/07/22 00:44:03;;;;;;;10.30;6.97;;;;;;;19.52;63.45;101736.44;691196;28;46336;-62
2021/07/22 00:44:24;;;;;;;9.27;7.00;;;;;;;19.51;63.37;101734.75;690365;28;67518;-62
2021/07/22 00:44:46;;;;;;;12.52;6.90;;;;;;;19.53;63.37;101738.09;692083;28;22487;-61
2021/07/22 00:45:10;;;;;;;9.55;6.78;;;;;;;19.51;63.46;101735.56;690625;28;91960;-61
2021/07/22 00:45:31;;;;;;;9.10;6.72;;;;;;;19.52;63.40;101734.53;689840;28;45320;-62
2021/07/22 00:45:52;;;;;;;7.93;6.65;;;;;;;19.51;63.72;101732.00;692210;28;23514;-61
2021/07/22 00:46:15;;;;;;;9.57;6.80;;;;;;;19.49;63.60;101731.38;692275;28;22395;-61
2021/07/22 00:46:38;;;;;;;8.43;6.50;;;;;;;19.49;63.63;101731.38;690247;28;69467;-62
2021/07/22 00:46:59;;;;;;;8.20;6.72;;;;;;;19.48;63.61;101736.00;689634;28;69586;-61
2021/07/22 00:47:21;;;;;;;8.93;6.65;;;;;;;19.47;63.54;101728.84;688854;28;22250;-61
2021/07/22 00:47:42;;;;;;;8.68;6.90;;;;;;;19.46;63.64;101732.63;690579;28;21517;-61
2021/07/22 00:48:04;;;;;;;9.38;6.97;;;;;;;19.47;63.63;101728.00;690619;28;46317;-62
2021/07/22 00:48:26;;;;;;;8.68;6.63;;;;;;;19.46;63.72;101727.16;687915;28;46260;-62
2021/07/22 00:48:48;;;;;;;9.63;7.30;;;;;;;19.45;63.74;101726.31;690830;28;44303;-61
2021/07/22 00:49:10;;;;;;;9.45;7.18;;;;;;;19.45;63.84;101734.53;689958;28;46365;-61
2021/07/22 00:49:33;;;;;;;9.48;6.90;;;;;;;19.44;63.67;101729.28;690815;28;43320;-61
2021/07/22 00:50:00;;;;;;;9.07;6.57;;;;;;;19.43;63.79;101727.59;687692;28;108893;-62
2021/07/22 00:50:22;;;;;;;9.07;7.00;;;;;;;19.43;63.88;101731.16;685531;28;138450;-61
2021/07/22 00:50:44;;;;;;;9.35;7.15;;;;;;;19.42;63.93;101724.00;690812;28;22393;-62
2021/07/22 00:51:05;;;;;;;10.00;6.82;;;;;;;19.42;63.85;101728.66;690801;28;69516;-62
2021/07/22 00:51:27;;;;;;;9.48;6.75;;;;;;;19.41;63.92;101729.69;690204;28;69440;-61
2021/07/22 00:51:49;;;;;;;8.48;6.50;;;;;;;19.38;63.92;101714.53;690237;28;23569;-61
2021/07/22 00:52:11;;;;;;;9.73;6.82;;;;;;;19.39;64.06;101724.44;690487;28;22177;-62
2021/07/22 00:52:33;;;;;;;9.50;6.78;;;;;;;19.40;64.06;101717.91;690255;28;49208;-62
2021/07/22 00:52:54;;;;;;;8.43;6.38;;;;;;;19.40;64.04;101726.13;690848;28;9982;-62
2021/07/22 00:53:16;;;;;;;9.23;6.93;;;;;;;19.40;63.88;101728.88;687875;28;46398;-61
2021/07/22 00:53:42;;;;;;;9.80;6.75;;;;;;;19.41;64.02;101724.22;685248;28;38031;-62
2021/07/22 00:54:04;;;;;;;9.65;6.78;;;;;;;19.40;63.95;101728.88;686322;28;25084;-61
2021/07/22 00:54:25;;;;;;;10.07;6.68;;;;;;;19.39;64.03;101727.16;687492;28;34121;-62
2021/07/22 00:54:48;;;;;;;9.05;6.95;;;;;;;19.40;64.03;101719.78;687798;28;23428;-61
2021/07/22 00:55:09;;;;;;;8.50;7.07;;;;;;;19.39;64.13;101726.34;686655;28;69406;-62
2021/07/22 00:55:32;;;;;;;9.18;6.78;;;;;;;19.38;64.08;101722.72;690363;28;46437;-62
2021/07/22 00:55:54;;;;;;;9.70;6.78;;;;;;;19.40;64.24;101725.25;692166;28;69457;-62
2021/07/22 00:56:17;;;;;;;11.15;6.97;;;;;;;19.38;64.28;101721.91;692718;28;45395;-61
2021/07/22 00:56:39;;;;;;;10.25;7.00;;;;;;;19.39;64.23;101727.16;693331;28;22407;-62
2021/07/22 00:57:01;;;;;;;11.98;6.93;;;;;;;19.39;64.16;101729.91;691601;28;69307;-61
2021/07/22 00:57:22;;;;;;;12.30;6.82;;;;;;;19.38;64.23;101722.72;692581;28;43160;-62
2021/07/22 00:57:44;;;;;;;10.38;6.93;;;;;;;19.39;64.14;101723.59;693382;28;21679;-62
2021/07/22 00:58:05;;;;;;;11.48;7.05;;;;;;;19.36;64.23;101724.84;692693;28;46325;-62
2021/07/22 00:58:27;;;;;;;9.85;6.95;;;;;;;19.38;64.18;101732.88;693224;28;18588;-62
2021/07/22 00:58:48;;;;;;;8.65;6.43;;;;;;;19.38;64.42;101724.63;692011;28;47209;-60
2021/07/22 00:59:09;;;;;;;7.60;6.35;;;;;;;19.37;64.37;101728.44;693797;28;14978;-62
2021/07/22 00:59:32;;;;;;;7.90;6.40;;;;;;;19.38;64.38;101730.13;692947;28;32538;-62
2021/07/22 00:59:55;;;;;;;7.75;6.40;;;;;;;19.37;64.27;101726.56;691125;28;46260;-62
2021/07/22 01:00:17;;;;;;;8.80;6.97;;;;;;;19.36;64.37;101730.34;689945;28;68391;-61
2021/07/22 01:00:38;;;;;;;10.50;6.82;;;;;;;19.39;64.45;101726.34;689815;28;45276;-62
2021/07/22 01:01:01;;;;;;;8.98;6.68;;;;;;;19.37;64.53;101734.78;687328;28;23799;-61
2021/07/22 01:01:23;;;;;;;9.35;6.72;;;;;;;19.37;64.28;101725.69;683512;28;62211;-62
2021/07/22 01:01:45;;;;;;;9.80;7.15;;;;;;;19.37;64.35;101729.28;683571;28;22457;-62
2021/07/22 01:02:08;;;;;;;8.43;6.55;;;;;;;19.38;64.42;101730.13;684484;28;80378;-62
2021/07/22 01:02:32;;;;;;;8.50;6.88;;;;;;;19.37;64.28;101725.69;689931;28;15981;-62
2021/07/22 01:02:55;;;;;;;9.40;6.82;;;;;;;19.38;64.31;101727.38;693480;28;1385;-62
2021/07/22 01:03:17;;;;;;;7.70;6.28;;;;;;;19.37;64.30;101728.44;692469;28;60180;-62
2021/07/22 01:03:39;;;;;;;8.13;6.40;;;;;;;19.37;64.28;101723.81;694206;28;22418;-62
2021/07/22 01:04:00;;;;;;;9.27;6.93;;;;;;;19.37;64.40;101728.44;693643;28;1290;-62
2021/07/22 01:04:22;;;;;;;10.00;6.63;;;;;;;19.37;64.45;101728.44;690696;28;17243;-62
2021/07/22 01:04:45;;;;;;;9.20;6.47;;;;;;;19.38;64.40;101727.38;691659;28;35099;-61
2021/07/22 01:05:07;;;;;;;8.23;6.70;;;;;;;19.37;64.33;101729.28;692886;28;1275;-62
2021/07/22 01:05:29;;;;;;;9.38;6.50;;;;;;;19.36;64.67;101726.75;691729;28;31819;-62
2021/07/22 01:05:51;;;;;;;9.33;6.70;;;;;;;19.35;64.55;101728.63;692399;28;1564;-62
2021/07/22 01:06:14;;;;;;;9.75;7.07;;;;;;;19.34;64.54;101726.97;693500;28;1971;-62
2021/07/22 01:06:37;;;;;;;8.57;6.70;;;;;;;19.34;64.63;101726.97;692302;28;46418;-62
2021/07/22 01:07:05;;;;;;;8.43;6.93;;;;;;;19.35;64.74;101730.53;689516;28;60741;-61
2021/07/22 01:07:27;;;;;;;9.63;6.63;;;;;;;19.33;64.68;101727.19;689028;28;45353;-62
2021/07/22 01:07:48;;;;;;;8.20;6.43;;;;;;;19.33;64.73;101727.19;688264;28;22290;-62
2021/07/22 01:08:10;;;;;;;8.90;6.78;;;;;;;19.33;64.68;101729.91;685389;28;29516;-62
2021/07/22 01:08:33;;;;;;;9.40;6.95;;;;;;;19.32;64.55;101729.06;683281;28;10260;-61
2021/07/22 01:09:14;;;;;;;8.80;6.70;;;;;;;19.34;64.71;101723.38;685309;28;61058;-62
2021/07/22 01:09:50;;;;;;;8.70;6.80;;;;;;;19.33;64.66;101730.75;687195;28;121482;-62
2021/07/22 01:10:12;;;;;;;9.60;6.78;;;;;;;19.34;64.69;101728.84;693287;28;34916;-62
2021/07/22 01:10:34;;;;;;;7.85;6.60;;;;;;;19.32;64.64;101729.06;692863;28;66137;-61
2021/07/22 01:10:57;;;;;;;8.32;6.40;;;;;;;19.33;64.76;101732.66;692742;28;69446;-61
2021/07/22 01:11:19;;;;;;;9.18;6.75;;;;;;;19.33;64.73;101727.19;693926;28;21528;-61
2021/07/22 01:11:42;;;;;;;10.43;6.78;;;;;;;19.33;64.64;101727.19;692472;28;10571;-62
2021/07/22 01:12:04;;;;;;;9.00;6.70;;;;;;;19.33;64.78;101725.28;688371;28;56482;-61
2021/07/22 01:12:25;;;;;;;10.20;6.55;;;;;;;19.33;64.81;101732.66;688740;28;45505;-61
2021/07/22 01:12:46;;;;;;;10.88;6.57;;;;;;;19.32;64.72;101726.31;689697;28;47700;-62
2021/07/22 01:13:07;;;;;;;10.77;6.80;;;;;;;19.31;64.71;101724.66;690418;28;21526;-61
2021/07/22 01:13:29;;;;;;;10.40;7.10;;;;;;;19.31;64.85;101732.00;690924;28;22358;-61
2021/07/22 01:13:51;;;;;;;7.82;6.53;;;;;;;19.31;64.83;101730.13;692870;28;45574;-61
2021/07/22 01:14:13;;;;;;;9.43;6.65;;;;;;;19.29;64.81;101724.00;692991;28;35885;-62
2021/07/22 01:14:34;;;;;;;9.45;6.75;;;;;;;19.31;65.00;101726.53;692695;28;22476;-62
2021/07/22 01:15:01;;;;;;;9.18;6.63;;;;;;;19.30;64.91;101728.44;689541;28;131681;-61
2021/07/22 01:15:23;;;;;;;8.35;6.50;;;;;;;19.28;64.77;101727.81;690935;28;22482;-61
2021/07/22 01:15:45;;;;;;;9.43;6.75;;;;;;;19.31;65.07;101730.13;690277;28;39076;-61
2021/07/22 01:16:06;;;;;;;8.05;6.68;;;;;;;19.31;64.84;101730.13;692087;28;33570;-60
2021/07/22 01:16:28;;;;;;;8.25;6.60;;;;;;;19.32;64.82;101726.31;693216;28;23669;-61
2021/07/22 01:16:51;;;;;;;8.90;7.07;;;;;;;19.32;64.84;101729.06;689989;28;45251;-62
2021/07/22 01:17:19;;;;;;;9.88;6.80;;;;;;;19.31;64.74;101727.41;688197;28;65812;-61
2021/07/22 01:17:44;;;;;;;10.68;6.70;;;;;;;19.31;64.89;101727.41;685244;28;138165;-61
2021/07/22 01:18:09;;;;;;;10.35;6.75;;;;;;;19.32;64.76;101720.00;684235;28;138819;-61
2021/07/22 01:18:30;;;;;;;9.07;6.80;;;;;;;19.32;64.63;101720.84;688960;28;983;-61
2021/07/22 01:18:53;;;;;;;8.80;6.40;;;;;;;19.32;64.77;101720.84;689543;28;44117;-62
2021/07/22 01:19:15;;;;;;;8.82;6.38;;;;;;;19.32;64.73;101729.06;689298;28;63863;-61
2021/07/22 01:19:36;;;;;;;9.30;6.55;;;;;;;19.33;64.66;101724.44;692255;28;22415;-61
2021/07/22 01:20:01;;;;;;;9.68;7.03;;;;;;;19.32;64.86;101726.31;694059;28;21536;-61
2021/07/22 01:20:25;;;;;;;8.88;6.97;;;;;;;19.33;64.85;101721.72;690881;28;115926;-61
2021/07/22 01:20:49;;;;;;;9.23;7.03;;;;;;;19.32;64.86;101729.06;690116;28;137517;-61
2021/07/22 01:21:10;;;;;;;8.57;6.78;;;;;;;19.33;64.90;101725.28;692156;28;44155;-61
2021/07/22 01:21:32;;;;;;;8.93;7.05;;;;;;;19.32;64.81;101720.84;692795;28;42972;-61
2021/07/22 01:21:57;;;;;;;9.23;6.82;;;;;;;19.32;64.80;101720.84;691052;28;115339;-61
2021/07/22 01:22:18;;;;;;;11.30;7.13;;;;;;;19.31;64.91;101723.78;693342;28;46501;-61
2021/07/22 01:22:40;;;;;;;9.75;6.75;;;;;;;19.30;65.01;101722.97;693166;28;46191;-62
2021/07/22 01:23:02;;;;;;;9.27;6.72;;;;;;;19.32;64.97;101722.75;692077;28;69458;-62
2021/07/22 01:23:43;;;;;;;10.35;6.80;;;;;;;19.32;65.01;101718.09;689855;28;137533;-62
2021/07/22 01:24:23;;;;;;;10.13;7.10;;;;;;;19.33;64.94;101721.72;688920;28;137732;-61
2021/07/22 01:24:59;;;;;;;9.15;7.20;;;;;;;19.32;65.03;101720.84;691955;28;131238;-61
2021/07/22 01:25:22;;;;;;;11.57;7.03;;;;;;;19.33;64.91;101724.44;693182;28;46318;-61
2021/07/22 01:25:47;;;;;;;10.07;7.10;;;;;;;19.33;64.81;101727.19;689069;28;93070;-61
2021/07/22 01:26:08;;;;;;;7.88;6.70;;;;;;;19.34;64.96;101718.75;689941;28;69429;-61
2021/07/22 01:26:30;;;;;;;8.10;6.80;;;;;;;19.35;65.03;101730.53;687045;28;47350;-61
2021/07/22 01:26:57;;;;;;;7.95;6.68;;;;;;;19.34;64.99;101723.38;684684;28;135816;-61
2021/07/22 01:27:33;;;;;;;9.45;7.28;;;;;;;19.34;64.97;101726.97;687695;28;138142;-60
2021/07/22 01:28:01;;;;;;;10.32;6.85;;;;;;;19.34;64.86;101729.72;689619;28;139106;-61
2021/07/22 01:28:25;;;;;;;9.03;7.00;;;;;;;19.34;64.89;101718.75;692415;28;66652;-61
2021/07/22 01:28:47;;;;;;;9.60;6.90;;;;;;;19.34;64.92;101723.38;692702;28;46424;-61
2021/07/22 01:29:09;;;;;;;8.27;6.70;;;;;;;19.34;64.89;101721.50;693281;28;44794;-61
2021/07/22 01:29:31;;;;;;;10.50;6.93;;;;;;;19.35;64.82;101719.59;693036;28;44390;-61
2021/07/22 01:29:52;;;;;;;9.10;6.78;;;;;;;19.35;64.83;101717.69;693596;28;23412;-61
2021/07/22 01:30:15;;;;;;;8.23;6.40;;;;;;;19.34;64.80;101721.50;693113;28;46244;-62
2021/07/22 01:30:36;;;;;;;9.23;6.90;;;;;;;19.34;64.97;101718.75;692553;28;67499;-61
2021/07/22 01:30:58;;;;;;;8.68;7.18;;;;;;;19.35;64.91;101727.81;694396;28;22177;-62
2021/07/22 01:31:24;;;;;;;12.05;6.88;;;;;;;19.34;65.02;101717.91;693100;28;46281;-61
2021/07/22 01:31:45;;;;;;;10.45;7.20;;;;;;;19.34;64.88;101720.63;690509;28;115903;-62
2021/07/22 01:32:08;;;;;;;9.18;7.20;;;;;;;19.35;64.93;101725.06;690478;28;44780;-62
2021/07/22 01:32:30;;;;;;;7.78;6.70;;;;;;;19.35;64.98;101722.31;687285;28;66806;-61
2021/07/22 01:32:52;;;;;;;7.60;6.30;;;;;;;19.34;64.94;101718.75;687905;28;46298;-61
2021/07/22 01:33:14;;;;;;;7.80;6.72;;;;;;;19.35;64.95;101720.41;686395;28;46539;-61
2021/07/22 01:33:36;;;;;;;8.20;6.97;;;;;;;19.34;65.00;101717.91;684750;28;23483;-61
2021/07/22 01:33:58;;;;;;;10.02;6.68;;;;;;;19.34;65.04;101717.91;686162;28;46401;-61
2021/07/22 01:34:19;;;;;;;11.02;6.95;;;;;;;19.34;65.03;101721.50;684964;28;44342;-60
2021/07/22 01:34:41;;;;;;;10.55;7.18;;;;;;;19.33;65.12;101727.19;686677;28;1887;-62
2021/07/22 01:35:06;;;;;;;8.85;6.78;;;;;;;19.33;65.17;101721.72;687236;28;14818;-61
2021/07/22 01:35:29;;;;;;;8.88;6.65;;;;;;;19.34;65.14;101720.63;687596;28;46301;-61
2021/07/22 01:35:51;;;;;;;8.65;7.10;;;;;;;19.33;64.99;101725.28;690161;28;15762;-61
2021/07/22 01:36:17;;;;;;;9.50;7.07;;;;;;;19.32;65.09;101723.59;692865;28;1868;-61
2021/07/22 01:36:40;;;;;;;8.85;6.95;;;;;;;19.30;65.28;101717.47;687868;28;115945;-61
2021/07/22 01:37:01;;;;;;;9.55;7.28;;;;;;;19.31;65.26;101719.19;691453;28;17498;-61
2021/07/22 01:37:23;;;;;;;9.70;7.20;;;;;;;19.31;65.16;101724.66;692878;28;15267;-61
2021/07/22 01:37:44;;;;;;;9.80;7.38;;;;;;;19.31;65.11;101726.53;691747;28;47134;-61
2021/07/22 01:38:05;;;;;;;9.68;6.85;;;;;;;19.30;65.33;101722.97;693387;28;41566;-61
2021/07/22 01:38:27;;;;;;;8.95;6.97;;;;;;;19.29;65.12;101721.25;692303;28;46364;-62
2021/07/22 01:38:50;;;;;;;9.00;7.13;;;;;;;19.29;65.23;101725.91;692039;28;12463;-61
2021/07/22 01:39:12;;;;;;;10.40;7.63;;;;;;;19.28;65.27;101727.81;691548;28;14161;-61
2021/07/22 01:39:34;;;;;;;9.23;7.43;;;;;;;19.26;65.26;101725.28;691549;28;22414;-61
2021/07/22 01:39:56;;;;;;;10.20;7.22;;;;;;;19.25;65.30;101718.13;687462;28;69170;-61
2021/07/22 01:40:19;;;;;;;10.13;6.75;;;;;;;19.26;65.43;101721.69;687239;28;21163;-61
2021/07/22 01:40:41;;;;;;;12.90;7.80;;;;;;;19.28;65.18;101719.59;686233;28;92348;-62
2021/07/22 01:41:03;;;;;;;10.38;7.43;;;;;;;19.26;65.20;101714.34;687731;28;6760;-61
2021/07/22 01:41:25;;;;;;;10.30;7.60;;;;;;;19.26;65.17;101717.06;685830;28;44379;-61
2021/07/22 01:41:46;;;;;;;11.05;7.57;;;;;;;19.26;65.11;101721.69;687043;28;44367;-62
2021/07/22 01:42:08;;;;;;;11.13;7.60;;;;;;;19.25;65.26;101718.13;687161;28;23510;-61
2021/07/22 01:42:32;;;;;;;9.82;7.57;;;;;;;19.25;65.31;101722.75;686723;28;113427;-61
2021/07/22 01:42:54;;;;;;;11.43;7.13;;;;;;;19.24;65.33;101719.16;692340;28;23270;-60
2021/07/22 01:43:19;;;;;;;10.80;7.13;;;;;;;19.24;65.23;101723.81;689092;28;92446;-62
2021/07/22 01:43:43;;;;;;;8.98;6.80;;;;;;;19.25;65.36;101720.03;686862;28;137845;-61
2021/07/22 01:44:05;;;;;;;7.97;6.72;;;;;;;19.24;65.35;101723.81;693317;28;21302;-61
2021/07/22 01:44:28;;;;;;;9.43;7.25;;;;;;;19.23;65.33;101722.09;692599;28;64387;-61
2021/07/22 01:44:50;;;;;;;10.48;7.70;;;;;;;19.23;65.27;101720.22;690840;28;22404;-61
2021/07/22 01:45:12;;;;;;;10.32;7.10;;;;;;;19.23;65.47;101719.38;690071;28;69369;-61
2021/07/22 01:45:37;;;;;;;9.40;7.00;;;;;;;19.23;65.41;101720.22;686164;28;138212;-62
2021/07/22 01:45:59;;;;;;;10.75;6.97;;;;;;;19.23;65.43;101719.38;686507;28;22354;-61